sensor_id;sensor_type;location;lat;lon;timestamp;P1;durP1;ratioP1;P2;durP2;ratioP2
37559;SDS011;23398;50.928;7.084;2023-10-09T00:02:11;7.55;;;5.30;;
37559;SDS011;23398;50.928;7.084;2023-10-09T00:04:39;9.82;;;5.95;;
37559;SDS011;23398;50.928;7.084;2023-10-09T00:07:11;7.70;;;5.03;;
37559;SDS011;23398;50.928;7.084;2023-10-09T00:09:37;7.63;;;6.03;;
37559;SDS011;23398;50.928;7.084;2023-10-09T00:12:13;8.27;;;5.78;;
37559;SDS011;23398;50.928;7.084;2023-10-09T00:14:41;7.45;;;5.40;;
37559;SDS011;23398;50.928;7.084;2023-10-09T00:17:12;9.25;;;6.20;;
37559;SDS011;23398;50.928;7.084;2023-10-09T00:19:42;8.63;;;5.75;;
37559;SDS011;23398;50.928;7.084;2023-10-09T00:22:12;8.38;;;5.63;;
37559;SDS011;23398;50.928;7.084;2023-10-09T00:24:51;10.88;;;6.72;;
37559;SDS011;23398;50.928;7.084;2023-10-09T00:27:38;8.00;;;5.80;;
37559;SDS011;23398;50.928;7.084;2023-10-09T00:30:13;11.13;;;6.78;;
37559;SDS011;23398;50.928;7.084;2023-10-09T00:32:44;8.73;;;5.95;;
37559;SDS011;23398;50.928;7.084;2023-10-09T00:35:26;9.35;;;6.07;;
37559;SDS011;23398;50.928;7.084;2023-10-09T00:38:01;8.48;;;5.10;;
37559;SDS011;23398;50.928;7.084;2023-10-09T00:40:39;6.88;;;4.63;;
37559;SDS011;23398;50.928;7.084;2023-10-09T00:43:12;7.32;;;4.97;;
37559;SDS011;23398;50.928;7.084;2023-10-09T00:45:40;7.47;;;4.80;;
37559;SDS011;23398;50.928;7.084;2023-10-09T00:48:09;6.90;;;4.68;;
37559;SDS011;23398;50.928;7.084;2023-10-09T00:50:35;8.02;;;5.13;;
37559;SDS011;23398;50.928;7.084;2023-10-09T00:53:01;7.70;;;5.03;;
37559;SDS011;23398;50.928;7.084;2023-10-09T00:55:31;8.60;;;4.72;;
37559;SDS011;23398;50.928;7.084;2023-10-09T00:58:11;9.50;;;5.55;;
37559;SDS011;23398;50.928;7.084;2023-10-09T01:00:37;6.50;;;5.07;;
37559;SDS011;23398;50.928;7.084;2023-10-09T01:03:14;7.45;;;5.32;;
37559;SDS011;23398;50.928;7.084;2023-10-09T01:05:41;5.65;;;4.43;;
37559;SDS011;23398;50.928;7.084;2023-10-09T01:08:16;8.65;;;5.53;;
37559;SDS011;23398;50.928;7.084;2023-10-09T01:10:50;8.63;;;6.15;;
37559;SDS011;23398;50.928;7.084;2023-10-09T01:13:18;7.60;;;5.03;;
37559;SDS011;23398;50.928;7.084;2023-10-09T01:15:44;6.20;;;4.50;;
37559;SDS011;23398;50.928;7.084;2023-10-09T01:18:10;6.88;;;3.80;;
37559;SDS011;23398;50.928;7.084;2023-10-09T01:20:37;7.85;;;5.15;;
37559;SDS011;23398;50.928;7.084;2023-10-09T01:23:10;9.15;;;6.10;;
37559;SDS011;23398;50.928;7.084;2023-10-09T01:25:37;8.48;;;5.75;;
37559;SDS011;23398;50.928;7.084;2023-10-09T01:28:10;6.95;;;4.68;;
37559;SDS011;23398;50.928;7.084;2023-10-09T01:30:40;5.68;;;4.53;;
37559;SDS011;23398;50.928;7.084;2023-10-09T01:33:07;7.05;;;5.47;;
37559;SDS011;23398;50.928;7.084;2023-10-09T01:35:44;7.35;;;5.70;;
37559;SDS011;23398;50.928;7.084;2023-10-09T01:38:14;6.95;;;5.43;;
37559;SDS011;23398;50.928;7.084;2023-10-09T01:40:40;6.75;;;5.25;;
37559;SDS011;23398;50.928;7.084;2023-10-09T01:43:08;8.35;;;5.75;;
37559;SDS011;23398;50.928;7.084;2023-10-09T01:45:37;9.02;;;6.50;;
37559;SDS011;23398;50.928;7.084;2023-10-09T01:48:11;8.15;;;5.20;;
37559;SDS011;23398;50.928;7.084;2023-10-09T01:50:39;7.00;;;5.50;;
37559;SDS011;23398;50.928;7.084;2023-10-09T01:53:07;9.38;;;5.43;;
37559;SDS011;23398;50.928;7.084;2023-10-09T01:55:33;10.27;;;5.95;;
37559;SDS011;23398;50.928;7.084;2023-10-09T01:58:05;9.82;;;6.13;;
37559;SDS011;23398;50.928;7.084;2023-10-09T02:00:47;8.75;;;5.35;;
37559;SDS011;23398;50.928;7.084;2023-10-09T02:03:26;11.60;;;6.30;;
37559;SDS011;23398;50.928;7.084;2023-10-09T02:05:54;7.25;;;5.60;;
37559;SDS011;23398;50.928;7.084;2023-10-09T02:08:28;7.93;;;5.53;;
37559;SDS011;23398;50.928;7.084;2023-10-09T02:10:55;11.15;;;6.00;;
37559;SDS011;23398;50.928;7.084;2023-10-09T02:13:21;8.20;;;5.47;;
37559;SDS011;23398;50.928;7.084;2023-10-09T02:16:00;8.15;;;5.80;;
37559;SDS011;23398;50.928;7.084;2023-10-09T02:18:41;6.22;;;4.60;;
37559;SDS011;23398;50.928;7.084;2023-10-09T02:21:23;5.07;;;4.07;;
37559;SDS011;23398;50.928;7.084;2023-10-09T02:24:02;6.22;;;4.22;;
37559;SDS011;23398;50.928;7.084;2023-10-09T02:26:30;6.65;;;4.15;;
37559;SDS011;23398;50.928;7.084;2023-10-09T02:28:59;7.28;;;4.53;;
37559;SDS011;23398;50.928;7.084;2023-10-09T02:31:25;5.43;;;4.10;;
37559;SDS011;23398;50.928;7.084;2023-10-09T02:33:53;7.53;;;4.05;;
37559;SDS011;23398;50.928;7.084;2023-10-09T02:36:21;6.25;;;4.10;;
37559;SDS011;23398;50.928;7.084;2023-10-09T02:38:47;5.57;;;3.60;;
37559;SDS011;23398;50.928;7.084;2023-10-09T02:41:14;5.15;;;3.85;;
37559;SDS011;23398;50.928;7.084;2023-10-09T02:43:40;6.70;;;4.00;;
37559;SDS011;23398;50.928;7.084;2023-10-09T02:46:16;5.30;;;4.00;;
37559;SDS011;23398;50.928;7.084;2023-10-09T02:48:43;6.40;;;4.50;;
37559;SDS011;23398;50.928;7.084;2023-10-09T02:51:32;6.45;;;4.32;;
37559;SDS011;23398;50.928;7.084;2023-10-09T02:53:59;7.18;;;4.57;;
37559;SDS011;23398;50.928;7.084;2023-10-09T02:56:52;5.05;;;3.55;;
37559;SDS011;23398;50.928;7.084;2023-10-09T02:59:21;5.57;;;3.90;;
37559;SDS011;23398;50.928;7.084;2023-10-09T03:01:47;6.20;;;4.22;;
37559;SDS011;23398;50.928;7.084;2023-10-09T03:04:14;5.10;;;4.07;;
37559;SDS011;23398;50.928;7.084;2023-10-09T03:06:40;6.32;;;3.75;;
37559;SDS011;23398;50.928;7.084;2023-10-09T03:09:16;7.38;;;4.05;;
37559;SDS011;23398;50.928;7.084;2023-10-09T03:11:45;6.13;;;4.28;;
37559;SDS011;23398;50.928;7.084;2023-10-09T03:14:13;6.47;;;4.15;;
37559;SDS011;23398;50.928;7.084;2023-10-09T03:16:40;6.43;;;3.85;;
37559;SDS011;23398;50.928;7.084;2023-10-09T03:19:07;5.38;;;3.67;;
37559;SDS011;23398;50.928;7.084;2023-10-09T03:21:35;5.72;;;3.83;;
37559;SDS011;23398;50.928;7.084;2023-10-09T03:24:01;6.38;;;3.95;;
37559;SDS011;23398;50.928;7.084;2023-10-09T03:26:29;4.63;;;3.58;;
37559;SDS011;23398;50.928;7.084;2023-10-09T03:28:56;4.85;;;3.58;;
37559;SDS011;23398;50.928;7.084;2023-10-09T03:31:26;5.00;;;3.95;;
37559;SDS011;23398;50.928;7.084;2023-10-09T03:33:55;6.55;;;4.03;;
37559;SDS011;23398;50.928;7.084;2023-10-09T03:36:21;5.63;;;4.03;;
37559;SDS011;23398;50.928;7.084;2023-10-09T03:38:51;4.82;;;3.33;;
37559;SDS011;23398;50.928;7.084;2023-10-09T03:41:20;3.72;;;3.20;;
37559;SDS011;23398;50.928;7.084;2023-10-09T03:43:46;5.25;;;3.65;;
37559;SDS011;23398;50.928;7.084;2023-10-09T03:46:12;5.68;;;3.85;;
37559;SDS011;23398;50.928;7.084;2023-10-09T03:48:48;6.82;;;4.00;;
37559;SDS011;23398;50.928;7.084;2023-10-09T03:51:14;5.60;;;3.90;;
37559;SDS011;23398;50.928;7.084;2023-10-09T03:53:47;5.47;;;3.55;;
37559;SDS011;23398;50.928;7.084;2023-10-09T03:56:13;6.75;;;4.10;;
37559;SDS011;23398;50.928;7.084;2023-10-09T03:58:44;5.43;;;3.90;;
37559;SDS011;23398;50.928;7.084;2023-10-09T04:01:18;6.13;;;4.00;;
37559;SDS011;23398;50.928;7.084;2023-10-09T04:03:47;6.63;;;4.20;;
37559;SDS011;23398;50.928;7.084;2023-10-09T04:06:14;4.18;;;3.47;;
37559;SDS011;23398;50.928;7.084;2023-10-09T04:08:43;5.63;;;3.70;;
37559;SDS011;23398;50.928;7.084;2023-10-09T04:11:14;7.18;;;4.35;;
37559;SDS011;23398;50.928;7.084;2023-10-09T04:13:47;5.90;;;4.03;;
37559;SDS011;23398;50.928;7.084;2023-10-09T04:16:18;5.35;;;3.80;;
37559;SDS011;23398;50.928;7.084;2023-10-09T04:19:00;6.07;;;3.83;;
37559;SDS011;23398;50.928;7.084;2023-10-09T04:21:32;5.45;;;3.90;;
37559;SDS011;23398;50.928;7.084;2023-10-09T04:24:04;5.55;;;3.67;;
37559;SDS011;23398;50.928;7.084;2023-10-09T04:26:49;4.32;;;3.58;;
37559;SDS011;23398;50.928;7.084;2023-10-09T04:29:21;4.43;;;3.50;;
37559;SDS011;23398;50.928;7.084;2023-10-09T04:31:56;5.22;;;3.70;;
37559;SDS011;23398;50.928;7.084;2023-10-09T04:34:26;5.72;;;3.72;;
37559;SDS011;23398;50.928;7.084;2023-10-09T04:37:15;5.35;;;3.88;;
37559;SDS011;23398;50.928;7.084;2023-10-09T04:39:59;7.05;;;3.72;;
37559;SDS011;23398;50.928;7.084;2023-10-09T04:42:38;5.10;;;3.60;;
37559;SDS011;23398;50.928;7.084;2023-10-09T04:45:11;4.82;;;3.67;;
37559;SDS011;23398;50.928;7.084;2023-10-09T04:47:39;5.40;;;3.95;;
37559;SDS011;23398;50.928;7.084;2023-10-09T04:50:14;6.07;;;3.88;;
37559;SDS011;23398;50.928;7.084;2023-10-09T04:52:43;5.78;;;3.85;;
37559;SDS011;23398;50.928;7.084;2023-10-09T04:55:09;6.25;;;4.05;;
37559;SDS011;23398;50.928;7.084;2023-10-09T04:57:36;6.35;;;4.15;;
37559;SDS011;23398;50.928;7.084;2023-10-09T05:00:17;6.47;;;3.97;;
37559;SDS011;23398;50.928;7.084;2023-10-09T05:02:59;4.80;;;3.88;;
37559;SDS011;23398;50.928;7.084;2023-10-09T05:05:29;5.80;;;3.88;;
37559;SDS011;23398;50.928;7.084;2023-10-09T05:13:34;4.38;;;3.20;;
37559;SDS011;23398;50.928;7.084;2023-10-09T05:16:03;4.60;;;3.28;;
37559;SDS011;23398;50.928;7.084;2023-10-09T05:18:58;6.63;;;3.53;;
37559;SDS011;23398;50.928;7.084;2023-10-09T05:21:35;8.35;;;3.95;;
37559;SDS011;23398;50.928;7.084;2023-10-09T05:24:09;4.43;;;3.63;;
37559;SDS011;23398;50.928;7.084;2023-10-09T05:26:42;6.88;;;4.25;;
37559;SDS011;23398;50.928;7.084;2023-10-09T05:29:11;4.95;;;3.53;;
37559;SDS011;23398;50.928;7.084;2023-10-09T05:32:05;6.10;;;3.78;;
37559;SDS011;23398;50.928;7.084;2023-10-09T05:34:37;4.95;;;3.72;;
37559;SDS011;23398;50.928;7.084;2023-10-09T05:37:22;4.85;;;3.60;;
37559;SDS011;23398;50.928;7.084;2023-10-09T05:39:54;4.40;;;3.33;;
37559;SDS011;23398;50.928;7.084;2023-10-09T05:42:44;3.97;;;3.33;;
37559;SDS011;23398;50.928;7.084;2023-10-09T05:45:14;5.03;;;3.63;;
37559;SDS011;23398;50.928;7.084;2023-10-09T05:50:28;6.47;;;3.72;;
37559;SDS011;23398;50.928;7.084;2023-10-09T05:52:54;6.72;;;4.55;;
37559;SDS011;23398;50.928;7.084;2023-10-09T05:55:22;6.07;;;4.05;;
37559;SDS011;23398;50.928;7.084;2023-10-09T05:57:54;6.30;;;3.33;;
37559;SDS011;23398;50.928;7.084;2023-10-09T06:00:27;5.32;;;3.70;;
37559;SDS011;23398;50.928;7.084;2023-10-09T06:03:15;4.22;;;3.53;;
37559;SDS011;23398;50.928;7.084;2023-10-09T06:05:47;6.68;;;3.60;;
37559;SDS011;23398;50.928;7.084;2023-10-09T06:08:28;4.90;;;3.60;;
37559;SDS011;23398;50.928;7.084;2023-10-09T06:11:10;4.80;;;3.70;;
37559;SDS011;23398;50.928;7.084;2023-10-09T06:13:56;6.57;;;4.15;;
37559;SDS011;23398;50.928;7.084;2023-10-09T06:19:13;5.88;;;3.67;;
37559;SDS011;23398;50.928;7.084;2023-10-09T06:21:45;5.72;;;3.60;;
37559;SDS011;23398;50.928;7.084;2023-10-09T06:24:17;8.27;;;4.07;;
37559;SDS011;23398;50.928;7.084;2023-10-09T06:26:44;7.20;;;4.15;;
37559;SDS011;23398;50.928;7.084;2023-10-09T06:29:22;7.47;;;4.10;;
37559;SDS011;23398;50.928;7.084;2023-10-09T06:32:06;7.22;;;4.07;;
37559;SDS011;23398;50.928;7.084;2023-10-09T06:34:52;5.30;;;3.90;;
37559;SDS011;23398;50.928;7.084;2023-10-09T06:37:44;6.50;;;3.60;;
37559;SDS011;23398;50.928;7.084;2023-10-09T06:40:47;5.45;;;3.92;;
37559;SDS011;23398;50.928;7.084;2023-10-09T06:43:39;4.32;;;3.63;;
37559;SDS011;23398;50.928;7.084;2023-10-09T06:46:13;5.85;;;3.97;;
37559;SDS011;23398;50.928;7.084;2023-10-09T06:49:03;6.07;;;3.80;;
37559;SDS011;23398;50.928;7.084;2023-10-09T06:51:48;5.97;;;3.70;;
37559;SDS011;23398;50.928;7.084;2023-10-09T06:54:20;5.13;;;3.75;;
37559;SDS011;23398;50.928;7.084;2023-10-09T06:56:50;6.55;;;3.95;;
37559;SDS011;23398;50.928;7.084;2023-10-09T06:59:18;6.65;;;3.75;;
37559;SDS011;23398;50.928;7.084;2023-10-09T07:01:49;5.13;;;3.63;;
37559;SDS011;23398;50.928;7.084;2023-10-09T07:04:35;7.75;;;4.28;;
37559;SDS011;23398;50.928;7.084;2023-10-09T07:07:01;5.88;;;3.90;;
37559;SDS011;23398;50.928;7.084;2023-10-09T07:09:32;8.05;;;4.50;;
37559;SDS011;23398;50.928;7.084;2023-10-09T07:12:10;4.97;;;3.90;;
37559;SDS011;23398;50.928;7.084;2023-10-09T07:14:45;6.28;;;4.05;;
37559;SDS011;23398;50.928;7.084;2023-10-09T07:17:11;5.03;;;3.95;;
37559;SDS011;23398;50.928;7.084;2023-10-09T07:19:55;6.50;;;3.95;;
37559;SDS011;23398;50.928;7.084;2023-10-09T07:22:34;5.82;;;3.80;;
37559;SDS011;23398;50.928;7.084;2023-10-09T07:25:04;5.90;;;4.10;;
37559;SDS011;23398;50.928;7.084;2023-10-09T07:27:40;5.25;;;3.70;;
37559;SDS011;23398;50.928;7.084;2023-10-09T07:30:12;6.47;;;3.97;;
37559;SDS011;23398;50.928;7.084;2023-10-09T07:32:58;11.00;;;8.25;;
37559;SDS011;23398;50.928;7.084;2023-10-09T07:40:39;7.28;;;5.25;;
37559;SDS011;23398;50.928;7.084;2023-10-09T07:43:24;6.55;;;4.65;;
37559;SDS011;23398;50.928;7.084;2023-10-09T07:46:09;5.78;;;4.10;;
37559;SDS011;23398;50.928;7.084;2023-10-09T07:48:36;6.75;;;4.00;;
37559;SDS011;23398;50.928;7.084;2023-10-09T07:51:13;5.45;;;4.20;;
37559;SDS011;23398;50.928;7.084;2023-10-09T07:53:40;5.32;;;3.65;;
37559;SDS011;23398;50.928;7.084;2023-10-09T07:56:10;6.65;;;4.15;;
37559;SDS011;23398;50.928;7.084;2023-10-09T07:58:46;6.40;;;4.00;;
37559;SDS011;23398;50.928;7.084;2023-10-09T08:01:13;5.68;;;4.20;;
37559;SDS011;23398;50.928;7.084;2023-10-09T08:03:47;9.50;;;4.53;;
37559;SDS011;23398;50.928;7.084;2023-10-09T08:06:22;7.07;;;4.60;;
37559;SDS011;23398;50.928;7.084;2023-10-09T08:09:09;6.07;;;4.30;;
37559;SDS011;23398;50.928;7.084;2023-10-09T08:11:45;6.70;;;4.15;;
37559;SDS011;23398;50.928;7.084;2023-10-09T08:14:12;7.15;;;4.43;;
37559;SDS011;23398;50.928;7.084;2023-10-09T08:16:56;7.05;;;3.78;;
37559;SDS011;23398;50.928;7.084;2023-10-09T08:19:39;4.90;;;3.65;;
37559;SDS011;23398;50.928;7.084;2023-10-09T08:22:36;6.28;;;3.70;;
37559;SDS011;23398;50.928;7.084;2023-10-09T08:25:17;6.35;;;4.10;;
37559;SDS011;23398;50.928;7.084;2023-10-09T08:28:03;5.55;;;4.15;;
37559;SDS011;23398;50.928;7.084;2023-10-09T08:30:48;6.95;;;4.03;;
37559;SDS011;23398;50.928;7.084;2023-10-09T08:33:16;6.20;;;4.13;;
37559;SDS011;23398;50.928;7.084;2023-10-09T08:35:54;6.43;;;4.35;;
37559;SDS011;23398;50.928;7.084;2023-10-09T08:38:26;6.50;;;4.63;;
37559;SDS011;23398;50.928;7.084;2023-10-09T08:41:05;6.15;;;4.38;;
37559;SDS011;23398;50.928;7.084;2023-10-09T08:43:43;6.63;;;4.55;;
37559;SDS011;23398;50.928;7.084;2023-10-09T08:46:14;9.13;;;4.63;;
37559;SDS011;23398;50.928;7.084;2023-10-09T08:48:44;5.00;;;4.00;;
37559;SDS011;23398;50.928;7.084;2023-10-09T08:51:10;6.05;;;4.22;;
37559;SDS011;23398;50.928;7.084;2023-10-09T08:53:36;6.90;;;4.65;;
37559;SDS011;23398;50.928;7.084;2023-10-09T08:56:07;6.32;;;4.28;;
37559;SDS011;23398;50.928;7.084;2023-10-09T08:58:39;6.50;;;4.45;;
37559;SDS011;23398;50.928;7.084;2023-10-09T09:01:06;7.13;;;4.32;;
37559;SDS011;23398;50.928;7.084;2023-10-09T09:03:38;6.90;;;4.82;;
37559;SDS011;23398;50.928;7.084;2023-10-09T09:06:08;5.90;;;4.60;;
37559;SDS011;23398;50.928;7.084;2023-10-09T09:08:35;6.53;;;4.47;;
37559;SDS011;23398;50.928;7.084;2023-10-09T09:13:43;6.57;;;4.78;;
37559;SDS011;23398;50.928;7.084;2023-10-09T09:16:20;6.13;;;4.55;;
37559;SDS011;23398;50.928;7.084;2023-10-09T09:21:36;6.53;;;4.32;;
37559;SDS011;23398;50.928;7.084;2023-10-09T09:24:08;7.45;;;4.55;;
37559;SDS011;23398;50.928;7.084;2023-10-09T09:26:54;6.07;;;4.50;;
37559;SDS011;23398;50.928;7.084;2023-10-09T09:29:46;5.85;;;3.97;;
37559;SDS011;23398;50.928;7.084;2023-10-09T09:32:36;6.28;;;4.03;;
37559;SDS011;23398;50.928;7.084;2023-10-09T09:35:03;4.43;;;3.58;;
37559;SDS011;23398;50.928;7.084;2023-10-09T09:37:42;6.18;;;4.20;;
37559;SDS011;23398;50.928;7.084;2023-10-09T09:40:17;7.00;;;4.40;;
37559;SDS011;23398;50.928;7.084;2023-10-09T09:42:56;7.15;;;4.30;;
37559;SDS011;23398;50.928;7.084;2023-10-09T09:45:31;6.43;;;3.67;;
37559;SDS011;23398;50.928;7.084;2023-10-09T09:48:02;6.30;;;3.83;;
37559;SDS011;23398;50.928;7.084;2023-10-09T09:50:31;5.22;;;3.75;;
37559;SDS011;23398;50.928;7.084;2023-10-09T09:53:09;4.72;;;3.33;;
37559;SDS011;23398;50.928;7.084;2023-10-09T09:55:49;5.13;;;3.25;;
37559;SDS011;23398;50.928;7.084;2023-10-09T09:58:22;4.90;;;3.42;;
37559;SDS011;23398;50.928;7.084;2023-10-09T10:00:52;5.13;;;3.42;;
37559;SDS011;23398;50.928;7.084;2023-10-09T10:03:31;5.32;;;3.22;;
37559;SDS011;23398;50.928;7.084;2023-10-09T10:06:04;5.40;;;3.63;;
37559;SDS011;23398;50.928;7.084;2023-10-09T10:08:35;6.00;;;3.53;;
37559;SDS011;23398;50.928;7.084;2023-10-09T10:11:04;5.57;;;3.50;;
37559;SDS011;23398;50.928;7.084;2023-10-09T10:16:14;4.88;;;3.72;;
37559;SDS011;23398;50.928;7.084;2023-10-09T10:18:53;5.78;;;3.58;;
37559;SDS011;23398;50.928;7.084;2023-10-09T10:21:44;4.47;;;3.63;;
37559;SDS011;23398;50.928;7.084;2023-10-09T10:32:57;6.78;;;3.58;;
37559;SDS011;23398;50.928;7.084;2023-10-09T10:35:42;3.83;;;3.17;;
37559;SDS011;23398;50.928;7.084;2023-10-09T10:41:20;5.38;;;3.45;;
37559;SDS011;23398;50.928;7.084;2023-10-09T10:43:48;5.80;;;3.47;;
37559;SDS011;23398;50.928;7.084;2023-10-09T10:46:18;6.18;;;3.45;;
37559;SDS011;23398;50.928;7.084;2023-10-09T10:48:48;4.70;;;3.35;;
37559;SDS011;23398;50.928;7.084;2023-10-09T10:51:23;5.28;;;3.78;;
37559;SDS011;23398;50.928;7.084;2023-10-09T10:53:59;4.70;;;3.50;;
37559;SDS011;23398;50.928;7.084;2023-10-09T10:56:46;5.78;;;4.00;;
37559;SDS011;23398;50.928;7.084;2023-10-09T10:59:16;6.65;;;3.75;;
37559;SDS011;23398;50.928;7.084;2023-10-09T11:01:48;5.10;;;3.38;;
37559;SDS011;23398;50.928;7.084;2023-10-09T11:04:17;4.80;;;3.55;;
37559;SDS011;23398;50.928;7.084;2023-10-09T11:06:55;5.55;;;3.40;;
37559;SDS011;23398;50.928;7.084;2023-10-09T11:09:26;8.30;;;3.72;;
37559;SDS011;23398;50.928;7.084;2023-10-09T11:12:06;6.18;;;3.40;;
37559;SDS011;23398;50.928;7.084;2023-10-09T11:14:46;4.70;;;3.20;;
37559;SDS011;23398;50.928;7.084;2023-10-09T11:17:31;4.68;;;3.25;;
37559;SDS011;23398;50.928;7.084;2023-10-09T11:19:57;5.70;;;3.60;;
37559;SDS011;23398;50.928;7.084;2023-10-09T11:22:35;5.20;;;3.38;;
37559;SDS011;23398;50.928;7.084;2023-10-09T11:25:04;7.28;;;3.63;;
37559;SDS011;23398;50.928;7.084;2023-10-09T11:27:36;4.72;;;3.33;;
37559;SDS011;23398;50.928;7.084;2023-10-09T11:30:05;4.95;;;3.60;;
37559;SDS011;23398;50.928;7.084;2023-10-09T11:32:35;4.32;;;3.53;;
37559;SDS011;23398;50.928;7.084;2023-10-09T11:35:10;5.57;;;3.67;;
37559;SDS011;23398;50.928;7.084;2023-10-09T11:37:40;4.68;;;3.40;;
37559;SDS011;23398;50.928;7.084;2023-10-09T11:40:26;4.43;;;3.40;;
37559;SDS011;23398;50.928;7.084;2023-10-09T11:42:55;6.47;;;3.40;;
37559;SDS011;23398;50.928;7.084;2023-10-09T11:45:25;4.18;;;3.03;;
37559;SDS011;23398;50.928;7.084;2023-10-09T11:47:56;3.95;;;2.85;;
37559;SDS011;23398;50.928;7.084;2023-10-09T11:50:57;4.90;;;2.95;;
37559;SDS011;23398;50.928;7.084;2023-10-09T11:53:21;4.68;;;2.80;;
37559;SDS011;23398;50.928;7.084;2023-10-09T11:55:47;4.45;;;3.03;;
37559;SDS011;23398;50.928;7.084;2023-10-09T11:58:17;4.72;;;3.05;;
37559;SDS011;23398;50.928;7.084;2023-10-09T12:03:28;3.85;;;2.65;;
37559;SDS011;23398;50.928;7.084;2023-10-09T12:05:57;6.28;;;3.45;;
37559;SDS011;23398;50.928;7.084;2023-10-09T12:08:29;4.82;;;3.05;;
37559;SDS011;23398;50.928;7.084;2023-10-09T12:10:55;5.68;;;3.10;;
37559;SDS011;23398;50.928;7.084;2023-10-09T12:13:24;5.28;;;3.17;;
37559;SDS011;23398;50.928;7.084;2023-10-09T12:15:50;4.47;;;3.10;;
37559;SDS011;23398;50.928;7.084;2023-10-09T12:18:17;5.63;;;3.15;;
37559;SDS011;23398;50.928;7.084;2023-10-09T12:20:44;9.73;;;3.80;;
37559;SDS011;23398;50.928;7.084;2023-10-09T12:23:15;4.43;;;3.28;;
37559;SDS011;23398;50.928;7.084;2023-10-09T12:25:43;7.22;;;4.20;;
37559;SDS011;23398;50.928;7.084;2023-10-09T12:28:12;4.72;;;3.38;;
37559;SDS011;23398;50.928;7.084;2023-10-09T12:30:38;4.18;;;3.00;;
37559;SDS011;23398;50.928;7.084;2023-10-09T12:33:05;3.92;;;3.05;;
37559;SDS011;23398;50.928;7.084;2023-10-09T12:35:35;4.10;;;3.03;;
37559;SDS011;23398;50.928;7.084;2023-10-09T12:38:04;5.20;;;2.63;;
37559;SDS011;23398;50.928;7.084;2023-10-09T12:40:34;5.50;;;3.10;;
37559;SDS011;23398;50.928;7.084;2023-10-09T12:43:06;6.72;;;3.05;;
37559;SDS011;23398;50.928;7.084;2023-10-09T12:45:40;5.50;;;3.70;;
37559;SDS011;23398;50.928;7.084;2023-10-09T12:48:06;3.92;;;3.22;;
37559;SDS011;23398;50.928;7.084;2023-10-09T12:50:34;6.00;;;3.10;;
37559;SDS011;23398;50.928;7.084;2023-10-09T12:53:00;4.30;;;3.33;;
37559;SDS011;23398;50.928;7.084;2023-10-09T12:55:35;5.63;;;3.38;;
37559;SDS011;23398;50.928;7.084;2023-10-09T12:58:07;6.55;;;3.58;;
37559;SDS011;23398;50.928;7.084;2023-10-09T13:00:37;6.68;;;3.33;;
37559;SDS011;23398;50.928;7.084;2023-10-09T13:03:09;6.10;;;3.45;;
37559;SDS011;23398;50.928;7.084;2023-10-09T13:05:45;8.55;;;3.33;;
37559;SDS011;23398;50.928;7.084;2023-10-09T13:08:20;6.43;;;3.30;;
37559;SDS011;23398;50.928;7.084;2023-10-09T13:10:56;5.95;;;3.55;;
37559;SDS011;23398;50.928;7.084;2023-10-09T13:13:33;6.40;;;3.28;;
37559;SDS011;23398;50.928;7.084;2023-10-09T13:16:14;4.65;;;3.38;;
37559;SDS011;23398;50.928;7.084;2023-10-09T13:18:50;5.85;;;3.35;;
37559;SDS011;23398;50.928;7.084;2023-10-09T13:21:17;6.18;;;3.28;;
37559;SDS011;23398;50.928;7.084;2023-10-09T13:23:43;5.63;;;3.20;;
37559;SDS011;23398;50.928;7.084;2023-10-09T13:26:12;4.85;;;3.50;;
37559;SDS011;23398;50.928;7.084;2023-10-09T13:28:49;4.88;;;3.50;;
37559;SDS011;23398;50.928;7.084;2023-10-09T13:31:16;5.20;;;3.25;;
37559;SDS011;23398;50.928;7.084;2023-10-09T13:33:42;5.85;;;3.55;;
37559;SDS011;23398;50.928;7.084;2023-10-09T13:36:10;6.00;;;3.35;;
37559;SDS011;23398;50.928;7.084;2023-10-09T13:39:06;4.90;;;3.30;;
37559;SDS011;23398;50.928;7.084;2023-10-09T13:41:51;5.18;;;3.17;;
37559;SDS011;23398;50.928;7.084;2023-10-09T13:44:26;6.35;;;3.70;;
37559;SDS011;23398;50.928;7.084;2023-10-09T13:46:56;5.53;;;3.40;;
37559;SDS011;23398;50.928;7.084;2023-10-09T13:49:23;5.05;;;3.58;;
37559;SDS011;23398;50.928;7.084;2023-10-09T13:51:49;5.10;;;3.50;;
37559;SDS011;23398;50.928;7.084;2023-10-09T13:54:16;5.97;;;3.47;;
37559;SDS011;23398;50.928;7.084;2023-10-09T13:57:08;5.63;;;3.25;;
37559;SDS011;23398;50.928;7.084;2023-10-09T13:59:36;5.15;;;3.45;;
37559;SDS011;23398;50.928;7.084;2023-10-09T14:02:08;6.47;;;3.50;;
37559;SDS011;23398;50.928;7.084;2023-10-09T14:04:42;5.53;;;3.10;;
37559;SDS011;23398;50.928;7.084;2023-10-09T14:07:08;6.03;;;3.38;;
37559;SDS011;23398;50.928;7.084;2023-10-09T14:09:34;8.05;;;3.25;;
37559;SDS011;23398;50.928;7.084;2023-10-09T14:12:03;4.75;;;3.50;;
37559;SDS011;23398;50.928;7.084;2023-10-09T14:14:36;4.68;;;3.75;;
37559;SDS011;23398;50.928;7.084;2023-10-09T14:17:07;6.50;;;3.38;;
37559;SDS011;23398;50.928;7.084;2023-10-09T14:19:39;5.75;;;3.35;;
37559;SDS011;23398;50.928;7.084;2023-10-09T14:22:06;6.75;;;3.92;;
37559;SDS011;23398;50.928;7.084;2023-10-09T14:24:32;5.32;;;3.53;;
37559;SDS011;23398;50.928;7.084;2023-10-09T14:27:00;4.40;;;3.20;;
37559;SDS011;23398;50.928;7.084;2023-10-09T14:29:29;5.05;;;3.60;;
37559;SDS011;23398;50.928;7.084;2023-10-09T14:32:02;6.13;;;3.75;;
37559;SDS011;23398;50.928;7.084;2023-10-09T14:34:28;8.35;;;3.80;;
37559;SDS011;23398;50.928;7.084;2023-10-09T14:36:59;4.60;;;3.75;;
37559;SDS011;23398;50.928;7.084;2023-10-09T14:39:25;5.68;;;4.20;;
37559;SDS011;23398;50.928;7.084;2023-10-09T14:41:52;4.78;;;3.58;;
37559;SDS011;23398;50.928;7.084;2023-10-09T14:44:20;5.38;;;3.80;;
37559;SDS011;23398;50.928;7.084;2023-10-09T14:46:46;6.90;;;3.83;;
37559;SDS011;23398;50.928;7.084;2023-10-09T14:49:11;6.25;;;3.97;;
37559;SDS011;23398;50.928;7.084;2023-10-09T14:51:39;5.70;;;3.75;;
37559;SDS011;23398;50.928;7.084;2023-10-09T14:54:05;6.60;;;3.22;;
37559;SDS011;23398;50.928;7.084;2023-10-09T14:56:33;6.75;;;3.80;;
37559;SDS011;23398;50.928;7.084;2023-10-09T14:59:01;4.93;;;3.58;;
37559;SDS011;23398;50.928;7.084;2023-10-09T15:01:27;6.55;;;4.07;;
37559;SDS011;23398;50.928;7.084;2023-10-09T15:03:55;5.07;;;3.47;;
37559;SDS011;23398;50.928;7.084;2023-10-09T15:06:22;6.80;;;4.40;;
37559;SDS011;23398;50.928;7.084;2023-10-09T15:08:49;5.82;;;3.97;;
37559;SDS011;23398;50.928;7.084;2023-10-09T15:11:15;8.43;;;3.78;;
37559;SDS011;23398;50.928;7.084;2023-10-09T15:13:41;6.18;;;3.90;;
37559;SDS011;23398;50.928;7.084;2023-10-09T15:16:06;6.15;;;4.07;;
37559;SDS011;23398;50.928;7.084;2023-10-09T15:18:32;7.55;;;4.18;;
37559;SDS011;23398;50.928;7.084;2023-10-09T15:20:59;7.80;;;4.07;;
37559;SDS011;23398;50.928;7.084;2023-10-09T15:23:25;6.55;;;4.30;;
37559;SDS011;23398;50.928;7.084;2023-10-09T15:25:51;5.55;;;3.95;;
37559;SDS011;23398;50.928;7.084;2023-10-09T15:28:21;5.57;;;3.75;;
37559;SDS011;23398;50.928;7.084;2023-10-09T15:30:47;5.30;;;3.85;;
37559;SDS011;23398;50.928;7.084;2023-10-09T15:33:14;5.80;;;3.97;;
37559;SDS011;23398;50.928;7.084;2023-10-09T15:35:45;5.70;;;3.78;;
37559;SDS011;23398;50.928;7.084;2023-10-09T15:38:11;7.18;;;3.50;;
37559;SDS011;23398;50.928;7.084;2023-10-09T15:40:39;6.63;;;4.28;;
37559;SDS011;23398;50.928;7.084;2023-10-09T15:43:07;4.88;;;3.80;;
37559;SDS011;23398;50.928;7.084;2023-10-09T15:45:40;5.65;;;3.65;;
37559;SDS011;23398;50.928;7.084;2023-10-09T15:48:07;6.75;;;3.97;;
37559;SDS011;23398;50.928;7.084;2023-10-09T15:50:32;7.07;;;3.80;;
37559;SDS011;23398;50.928;7.084;2023-10-09T15:52:59;4.30;;;3.72;;
37559;SDS011;23398;50.928;7.084;2023-10-09T15:55:27;5.78;;;4.20;;
37559;SDS011;23398;50.928;7.084;2023-10-09T15:57:53;5.45;;;3.95;;
37559;SDS011;23398;50.928;7.084;2023-10-09T16:00:20;6.95;;;3.72;;